Time;durP1;ratioP1;P1;durP2;ratioP2;P2;SDS_P1;SDS_P2;PMS_P1;PMS_P2;Temp;Humidity;BMP_temperature;BMP_pressure;BME280_temperature;BME280_humidity;BME280_pressure;Samples;Min_cycle;Max_cycle;Signal;HPM_P1;HPM_P2
2022/06/30 00:00:30;;;;;;;23.90;12.80;;;;;;;23.37;55.52;98735.20;105924;1276;97909;-69
2022/06/30 00:03:07;;;;;;;21.20;13.10;;;;;;;23.32;55.26;98735.83;105969;1276;111373;-69
2022/06/30 00:05:39;;;;;;;21.90;11.70;;;;;;;23.27;55.44;98731.42;105997;1276;98014;-69
2022/06/30 00:08:08;;;;;;;22.70;13.50;;;;;;;23.22;55.39;98732.41;105908;1276;107824;-69
2022/06/30 00:10:40;;;;;;;22.10;12.50;;;;;;;23.17;55.85;98728.08;105846;1276;95230;-68
2022/06/30 00:13:11;;;;;;;21.40;13.50;;;;;;;23.16;55.90;98727.42;105831;1276;98634;-68
2022/06/30 00:15:39;;;;;;;28.70;13.70;;;;;;;23.15;55.95;98728.48;105946;1276;111417;-70
2022/06/30 00:18:08;;;;;;;23.10;13.40;;;;;;;23.12;56.17;98727.20;105964;1276;98449;-70
2022/06/30 00:20:38;;;;;;;22.80;12.70;;;;;;;23.06;56.13;98724.17;105988;1276;108394;-70
2022/06/30 00:23:09;;;;;;;23.30;13.80;;;;;;;22.97;55.94;98723.98;105980;1276;97862;-71
2022/06/30 00:25:38;;;;;;;23.10;13.10;;;;;;;22.84;55.92;98723.58;105988;1276;97888;-71
2022/06/30 00:28:09;;;;;;;22.50;12.80;;;;;;;22.70;56.15;98725.58;105923;1276;111372;-71
2022/06/30 00:30:38;;;;;;;25.10;14.10;;;;;;;22.59;56.12;98728.22;106035;1276;97934;-71
2022/06/30 00:33:06;;;;;;;23.80;13.30;;;;;;;22.54;56.61;98733.06;105941;1276;107588;-69
2022/06/30 00:35:36;;;;;;;21.20;13.10;;;;;;;22.51;56.55;98732.06;105932;1276;97864;-70
2022/06/30 00:38:05;;;;;;;23.90;12.80;;;;;;;22.50;56.74;98728.55;105987;1276;97913;-70
2022/06/30 00:40:41;;;;;;;20.40;12.10;;;;;;;22.52;56.73;98731.32;106060;1276;110616;-72
2022/06/30 00:43:14;;;;;;;20.20;12.20;;;;;;;22.54;57.15;98730.17;106059;1276;95217;-69
2022/06/30 00:45:47;;;;;;;22.20;12.40;;;;;;;22.56;57.16;98727.40;106032;1276;108340;-71
2022/06/30 00:48:21;;;;;;;20.70;12.80;;;;;;;22.57;57.34;98727.48;105982;1276;97852;-69
2022/06/30 00:50:52;;;;;;;23.30;12.40;;;;;;;22.56;57.02;98727.36;106014;1276;97902;-70
2022/06/30 00:53:25;;;;;;;23.40;12.10;;;;;;;22.56;57.16;98723.80;105973;1276;112052;-70
2022/06/30 00:55:56;;;;;;;21.30;12.40;;;;;;;22.55;57.31;98724.27;106023;1279;97731;-70
2022/06/30 00:58:27;;;;;;;23.00;14.10;;;;;;;22.54;57.14;98719.38;105929;1276;108159;-69
2022/06/30 01:00:59;;;;;;;22.10;11.60;;;;;;;22.52;57.54;98721.36;105841;1276;97868;-69
2022/06/30 01:03:34;;;;;;;18.80;11.80;;;;;;;22.51;57.29;98719.02;105884;1276;97926;-69
2022/06/30 01:06:06;;;;;;;22.10;12.50;;;;;;;22.46;57.59;98717.05;105898;1276;111508;-67
2022/06/30 01:08:35;;;;;;;21.00;11.40;;;;;;;22.44;57.47;98718.27;105858;1277;97906;-69
2022/06/30 01:13:55;;;;;;;22.90;11.40;;;;;;;22.39;57.56;98713.86;105926;1276;97756;-70
2022/06/30 01:16:23;;;;;;;21.70;11.60;;;;;;;22.34;57.62;98719.50;105946;1276;97876;-69
2022/06/30 01:18:51;;;;;;;20.00;11.30;;;;;;;22.31;57.56;98719.27;105927;1276;111321;-69
2022/06/30 01:21:19;;;;;;;19.20;11.20;;;;;;;22.29;57.89;98721.66;105898;1276;97974;-69
2022/06/30 01:23:49;;;;;;;20.60;11.20;;;;;;;22.28;57.73;98716.81;105942;1276;107676;-69
2022/06/30 01:26:17;;;;;;;19.40;10.80;;;;;;;22.28;57.92;98720.11;105922;1276;97956;-69
2022/06/30 01:28:51;;;;;;;21.50;11.30;;;;;;;22.28;58.07;98714.80;106004;1276;97871;-69
2022/06/30 01:31:23;;;;;;;20.10;11.30;;;;;;;22.29;58.12;98716.87;105987;1276;110300;-68
2022/06/30 01:33:51;;;;;;;20.10;11.40;;;;;;;22.27;57.94;98721.65;105976;1276;97845;-69
2022/06/30 01:36:21;;;;;;;19.90;11.60;;;;;;;22.22;57.97;98719.15;105923;1276;108349;-69
2022/06/30 01:38:53;;;;;;;21.80;12.00;;;;;;;22.17;58.19;98721.16;105995;1276;97865;-70
2022/06/30 01:41:25;;;;;;;21.40;11.80;;;;;;;22.12;58.41;98725.83;105986;1278;95276;-70
2022/06/30 01:43:55;;;;;;;20.50;11.60;;;;;;;22.12;58.43;98726.73;105937;1278;111431;-65
2022/06/30 01:46:25;;;;;;;18.90;11.10;;;;;;;22.12;58.44;98734.20;105902;1279;97885;-66
2022/06/30 01:48:56;;;;;;;20.40;11.60;;;;;;;22.09;58.48;98731.63;105909;1279;109187;-68
2022/06/30 01:51:26;;;;;;;19.10;11.40;;;;;;;22.05;58.37;98728.71;106010;1278;98023;-67
2022/06/30 01:53:58;;;;;;;20.00;11.50;;;;;;;22.01;58.55;98725.64;106041;1279;95284;-67
2022/06/30 01:56:33;;;;;;;19.40;11.40;;;;;;;21.97;58.75;98723.86;106040;1277;111976;-68
2022/06/30 01:59:05;;;;;;;20.50;11.00;;;;;;;21.91;58.52;98722.34;106007;1279;96362;-69
2022/06/30 02:01:37;;;;;;;21.30;12.20;;;;;;;21.90;58.75;98714.55;106015;1279;107486;-67
2022/06/30 02:06:56;;;;;;;18.10;11.20;;;;;;;21.92;59.03;98714.15;105913;1277;95185;-66
2022/06/30 02:09:26;;;;;;;20.60;11.90;;;;;;;21.91;58.85;98717.00;106012;1278;112636;-66
2022/06/30 02:12:45;;;;;;;17.80;10.90;;;;;;;21.88;58.93;98719.18;106019;1277;97879;-67
2022/06/30 02:14:46;;;;;;;18.70;11.10;;;;;;;21.82;58.90;98718.21;105880;1278;107844;-70
2022/06/30 02:17:21;;;;;;;19.80;10.90;;;;;;;21.78;59.14;98724.84;105994;1276;97879;-68
2022/06/30 02:19:50;;;;;;;17.50;10.60;;;;;;;21.77;59.38;98723.46;106028;1276;97989;-69
2022/06/30 02:22:19;;;;;;;18.10;10.70;;;;;;;21.75;59.23;98721.32;106017;1276;111493;-69
2022/06/30 02:24:52;;;;;;;18.80;10.60;;;;;;;21.73;59.20;98719.00;106037;1276;97906;-71
2022/06/30 02:27:24;;;;;;;19.40;10.90;;;;;;;21.72;59.44;98720.21;106050;1276;109374;-69
2022/06/30 02:29:53;;;;;;;18.80;11.10;;;;;;;21.72;59.50;98722.77;106042;1276;95282;-69
2022/06/30 02:32:26;;;;;;;19.80;11.10;;;;;;;21.70;59.37;98724.64;106053;1276;97896;-67
2022/06/30 02:34:55;;;;;;;19.70;10.90;;;;;;;21.67;59.39;98724.07;105990;1276;112018;-70
2022/06/30 02:37:26;;;;;;;19.30;11.10;;;;;;;21.64;59.48;98722.82;105964;1276;97004;-69
2022/06/30 02:39:56;;;;;;;21.10;12.90;;;;;;;21.61;59.44;98722.40;105981;1276;108470;-69
2022/06/30 02:42:28;;;;;;;22.90;13.20;;;;;;;21.59;59.65;98722.62;105884;1277;95370;-70
2022/06/30 02:45:00;;;;;;;24.70;13.70;;;;;;;21.54;59.67;98720.58;105996;1276;97877;-69
2022/06/30 02:47:37;;;;;;;22.10;13.80;;;;;;;21.50;59.62;98724.30;106004;1276;111493;-70
2022/06/30 02:50:10;;;;;;;22.60;13.50;;;;;;;21.47;59.80;98724.69;105985;1276;97612;-67
2022/06/30 02:52:42;;;;;;;23.50;14.10;;;;;;;21.43;59.65;98722.81;106051;1276;107895;-69
2022/06/30 02:55:12;;;;;;;23.30;14.00;;;;;;;21.37;59.74;98725.71;106088;1276;97753;-70
2022/06/30 02:57:42;;;;;;;24.00;13.50;;;;;;;21.32;59.73;98724.94;105991;1276;97893;-70
2022/06/30 03:00:16;;;;;;;21.10;13.50;;;;;;;21.28;59.73;98725.80;105989;1276;111456;-70
2022/06/30 03:02:46;;;;;;;21.90;13.60;;;;;;;21.24;59.87;98717.80;105898;1278;97986;-70
2022/06/30 03:05:16;;;;;;;24.20;15.10;;;;;;;21.22;59.88;98718.94;105870;1277;108359;-69
2022/06/30 03:07:47;;;;;;;26.60;15.20;;;;;;;21.20;59.92;98713.42;106022;1276;95295;-69
2022/06/30 03:10:17;;;;;;;22.60;13.40;;;;;;;21.19;60.01;98722.37;106006;1276;95514;-68
2022/06/30 03:12:48;;;;;;;20.50;12.90;;;;;;;21.16;60.15;98722.38;105990;1276;111413;-69
2022/06/30 03:15:22;;;;;;;22.40;13.50;;;;;;;21.14;59.91;98729.34;105991;1276;96593;-69
2022/06/30 03:17:50;;;;;;;23.50;13.10;;;;;;;21.11;60.24;98726.67;106004;1276;107580;-69
2022/06/30 03:20:20;;;;;;;22.00;13.40;;;;;;;21.10;60.18;98722.58;105903;1277;98163;-70
2022/06/30 03:22:48;;;;;;;21.80;12.90;;;;;;;21.08;60.24;98718.98;106018;1276;97962;-69
2022/06/30 03:25:16;;;;;;;21.10;13.10;;;;;;;21.07;60.21;98724.52;106034;1276;111127;-70
2022/06/30 03:27:47;;;;;;;19.50;11.80;;;;;;;21.08;60.36;98726.47;106042;1276;96321;-70
2022/06/30 03:30:18;;;;;;;21.70;12.60;;;;;;;21.07;60.52;98724.02;106034;1276;108389;-72
2022/06/30 03:32:45;;;;;;;21.30;12.80;;;;;;;21.06;60.44;98721.13;106036;1276;98043;-68
2022/06/30 03:35:13;;;;;;;22.50;12.20;;;;;;;21.04;60.44;98721.27;105987;1276;97866;-70
2022/06/30 03:37:44;;;;;;;19.80;12.40;;;;;;;21.03;60.59;98721.48;105956;1276;111356;-70
2022/06/30 03:40:14;;;;;;;19.90;11.90;;;;;;;21.02;60.67;98724.67;106000;1276;97961;-71
2022/06/30 03:42:42;;;;;;;19.30;11.40;;;;;;;21.03;60.69;98727.91;105993;1276;108096;-69
2022/06/30 03:45:12;;;;;;;20.10;12.30;;;;;;;21.05;60.79;98727.85;106067;1276;98002;-70
2022/06/30 03:47:43;;;;;;;22.80;12.40;;;;;;;21.04;60.64;98719.55;103117;1276;3872688;-69
2022/06/30 03:50:12;;;;;;;20.50;11.60;;;;;;;21.01;60.69;98717.88;106006;1276;96660;-68
2022/06/30 03:52:42;;;;;;;21.10;12.50;;;;;;;20.95;60.62;98716.29;106021;1276;96364;-70
2022/06/30 03:55:17;;;;;;;20.50;12.10;;;;;;;20.87;60.59;98715.99;105992;1277;107716;-68
2022/06/30 03:57:49;;;;;;;21.00;13.70;;;;;;;20.82;60.84;98715.65;105848;1277;95296;-69
2022/06/30 04:00:18;;;;;;;22.70;13.90;;;;;;;20.78;60.91;98712.32;106010;1277;98000;-70
2022/06/30 04:02:46;;;;;;;23.40;13.60;;;;;;;20.76;60.96;98711.73;105991;1277;111094;-69
2022/06/30 04:05:15;;;;;;;22.40;13.70;;;;;;;20.71;61.00;98710.27;106048;1276;95204;-69
2022/06/30 04:07:48;;;;;;;23.00;13.80;;;;;;;20.69;61.24;98713.45;106029;1276;107934;-71
2022/06/30 04:10:17;;;;;;;30.40;14.10;;;;;;;20.67;61.32;98712.88;106021;1276;97861;-72
2022/06/30 04:12:46;;;;;;;21.70;13.80;;;;;;;20.68;61.50;98715.71;106076;1276;97890;-73
2022/06/30 04:15:19;;;;;;;21.30;13.20;;;;;;;20.68;61.32;98718.59;106054;1276;110123;-72
2022/06/30 04:17:48;;;;;;;20.30;13.20;;;;;;;20.67;61.68;98720.36;106077;1276;95200;-70
2022/06/30 04:20:19;;;;;;;23.10;12.90;;;;;;;20.68;61.62;98719.10;106031;1277;108357;-70
2022/06/30 04:22:51;;;;;;;22.60;13.30;;;;;;;20.70;61.71;98721.81;106034;1276;97870;-68
2022/06/30 04:25:23;;;;;;;26.20;14.00;;;;;;;20.73;61.81;98716.98;106000;1278;97064;-69
2022/06/30 04:27:58;;;;;;;22.60;13.50;;;;;;;20.76;62.01;98724.31;106034;1277;111823;-70
2022/06/30 04:33:20;;;;;;;22.60;13.20;;;;;;;20.87;62.18;98724.45;105923;1277;107701;-69
2022/06/30 04:35:49;;;;;;;22.60;13.40;;;;;;;20.93;62.15;98725.29;105882;1278;95254;-73
2022/06/30 04:38:17;;;;;;;22.80;13.10;;;;;;;21.00;62.20;98726.02;106069;1277;97859;-65
2022/06/30 04:43:34;;;;;;;21.40;12.40;;;;;;;21.09;62.17;98725.90;106014;1277;95191;-65
2022/06/30 04:46:05;;;;;;;23.00;13.10;;;;;;;21.14;62.47;98726.25;106028;1277;107738;-65
2022/06/30 04:48:35;;;;;;;21.70;12.80;;;;;;;21.17;62.26;98722.77;106009;1278;97985;-64
2022/06/30 04:51:07;;;;;;;24.40;12.30;;;;;;;21.21;62.34;98725.16;106011;1278;97769;-66
2022/06/30 04:53:40;;;;;;;23.70;12.30;;;;;;;21.24;62.35;98728.59;105858;1277;112218;-66
2022/06/30 04:56:12;;;;;;;22.60;12.90;;;;;;;21.27;62.36;98732.52;105847;1277;97926;-65
2022/06/30 04:58:41;;;;;;;22.10;12.60;;;;;;;21.30;62.29;98731.73;105692;1277;108284;-64
2022/06/30 05:01:13;;;;;;;24.40;13.10;;;;;;;21.32;62.36;98734.50;105680;1278;97944;-66
2022/06/30 05:03:43;;;;;;;21.80;12.60;;;;;;;21.35;62.73;98728.89;106487;1277;96526;-65
2022/06/30 05:06:11;;;;;;;22.90;12.90;;;;;;;21.40;62.48;98734.23;105790;1277;111756;-65
2022/06/30 05:08:40;;;;;;;20.50;12.80;;;;;;;21.47;62.61;98736.51;107732;1277;95898;-65
2022/06/30 05:11:08;;;;;;;20.90;12.10;;;;;;;21.54;62.94;98739.42;107766;1276;107866;-65
2022/06/30 05:13:37;;;;;;;23.60;12.40;;;;;;;21.62;62.90;98740.26;105981;1277;97891;-66
2022/06/30 05:16:09;;;;;;;22.00;12.60;;;;;;;21.69;62.69;98739.46;106049;1277;97881;-66
2022/06/30 05:18:38;;;;;;;21.40;12.70;;;;;;;21.77;62.49;98745.48;105955;1277;111483;-66
2022/06/30 05:21:09;;;;;;;21.40;11.90;;;;;;;21.83;63.10;98746.45;105996;1277;97860;-65
2022/06/30 05:26:28;;;;;;;24.70;15.10;;;;;;;21.91;62.65;98745.50;105985;1277;106766;-65
2022/06/30 05:26:29;;;;;;;23.00;14.80;;;;;;;22.00;62.73;98746.71;105951;1277;97979;-66
2022/06/30 05:28:59;;;;;;;24.80;14.50;;;;;;;22.08;62.77;98750.65;106038;1276;97967;-65
2022/06/30 05:31:31;;;;;;;21.70;12.90;;;;;;;22.17;62.82;98748.98;106033;1276;112218;-66
2022/06/30 05:34:00;;;;;;;24.90;13.80;;;;;;;22.25;63.16;98748.02;105952;1278;97973;-66
2022/06/30 05:36:31;;;;;;;23.80;14.30;;;;;;;22.35;63.22;98750.23;105942;1277;109065;-65
2022/06/30 05:39:01;;;;;;;25.70;14.90;;;;;;;22.45;63.31;98750.65;105977;1277;97826;-65
2022/06/30 05:41:31;;;;;;;25.00;15.30;;;;;;;22.55;63.14;98749.58;105996;1277;95284;-65
2022/06/30 05:44:03;;;;;;;31.80;15.60;;;;;;;22.67;63.13;98747.35;105971;1277;111375;-65
2022/06/30 05:46:33;;;;;;;24.40;13.30;;;;;;;22.80;63.21;98744.32;105964;1277;97774;-65
2022/06/30 05:49:06;;;;;;;22.10;12.50;;;;;;;22.94;62.70;98742.90;105965;1277;108332;-66
2022/06/30 05:51:40;;;;;;;27.10;12.70;;;;;;;23.08;62.69;98744.72;106043;1276;97984;-65
2022/06/30 05:54:09;;;;;;;20.70;11.90;;;;;;;23.22;62.55;98745.39;106069;1277;97974;-66
2022/06/30 05:56:38;;;;;;;22.30;11.90;;;;;;;23.36;62.62;98745.70;106001;1277;111791;-66
2022/06/30 05:59:09;;;;;;;21.50;11.50;;;;;;;23.47;62.75;98737.56;106031;1277;96411;-66
2022/06/30 06:01:39;;;;;;;21.20;11.50;;;;;;;23.58;62.75;98739.02;106010;1277;108352;-65
2022/06/30 06:04:10;;;;;;;19.90;11.30;;;;;;;23.68;62.70;98742.17;105985;1277;97902;-66
2022/06/30 06:06:42;;;;;;;21.50;11.20;;;;;;;23.79;62.60;98746.17;105953;1277;97875;-66
2022/06/30 06:09:10;;;;;;;20.50;11.00;;;;;;;23.92;62.44;98751.98;105898;1277;112008;-65
2022/06/30 06:11:42;;;;;;;21.20;11.50;;;;;;;24.05;62.38;98757.36;105983;1277;97915;-67
2022/06/30 06:14:13;;;;;;;19.00;10.30;;;;;;;24.20;62.20;98759.00;105943;1278;108328;-66
2022/06/30 06:16:42;;;;;;;23.50;11.10;;;;;;;24.34;62.32;98758.70;106014;1277;98004;-67
2022/06/30 06:19:11;;;;;;;19.90;10.80;;;;;;;24.50;62.19;98758.29;106070;1277;97865;-66
2022/06/30 06:21:53;;;;;;;17.80;9.10;;;;;;;24.65;62.13;98757.39;106091;1276;111789;-65
2022/06/30 06:24:22;;;;;;;21.20;9.40;;;;;;;24.82;62.02;98756.31;106057;1277;95217;-66
2022/06/30 06:26:55;;;;;;;17.30;9.30;;;;;;;24.98;61.89;98758.48;105989;1277;107796;-66
2022/06/30 06:29:23;;;;;;;17.30;8.90;;;;;;;25.14;61.63;98761.67;106087;1277;97775;-66
2022/06/30 06:31:57;;;;;;;16.40;8.30;;;;;;;25.31;61.49;98757.00;106077;1277;98030;-66
2022/06/30 06:34:25;;;;;;;17.50;8.80;;;;;;;25.47;61.59;98753.77;106040;1276;111409;-65
2022/06/30 06:36:57;;;;;;;19.00;9.50;;;;;;;25.64;61.30;98752.15;106058;1276;98557;-66
2022/06/30 06:39:27;;;;;;;19.60;9.00;;;;;;;25.81;61.09;98755.27;105972;1276;108021;-67
2022/06/30 06:42:00;;;;;;;17.20;8.70;;;;;;;25.98;61.06;98758.31;105940;1278;97883;-66
2022/06/30 06:44:29;;;;;;;21.60;9.70;;;;;;;26.16;60.80;98763.91;105959;1277;97893;-67
2022/06/30 06:46:59;;;;;;;17.50;9.40;;;;;;;26.36;60.76;98768.12;105917;1278;112248;-67
2022/06/30 06:49:30;;;;;;;19.00;9.00;;;;;;;26.57;60.68;98770.48;105982;1277;97848;-66
2022/06/30 06:52:05;;;;;;;18.40;9.40;;;;;;;26.75;60.39;98767.27;105958;1277;108547;-66
2022/06/30 06:54:33;;;;;;;18.30;9.00;;;;;;;26.94;60.07;98766.24;106014;1276;97924;-66
2022/06/30 06:57:01;;;;;;;21.50;10.30;;;;;;;27.14;59.90;98766.27;105930;1277;97958;-70
2022/06/30 06:59:34;;;;;;;22.90;9.70;;;;;;;27.36;59.90;98765.88;105999;1277;111463;-69
2022/06/30 07:02:08;;;;;;;18.10;9.60;;;;;;;27.58;60.09;98767.23;105971;1277;98177;-69
2022/06/30 07:04:40;;;;;;;18.90;9.50;;;;;;;27.84;59.41;98766.37;105939;1277;107310;-69
2022/06/30 07:07:08;;;;;;;17.60;9.20;;;;;;;28.11;59.29;98763.03;105981;1276;98475;-69
2022/06/30 07:09:36;;;;;;;19.40;9.00;;;;;;;28.47;59.17;98761.64;106037;1276;97873;-69
2022/06/30 07:12:08;;;;;;;16.50;8.50;;;;;;;28.88;59.08;98759.62;105964;1277;111750;-70
2022/06/30 07:14:37;;;;;;;17.90;9.20;;;;;;;29.32;58.66;98758.51;106036;1277;95218;-70
2022/06/30 07:17:06;;;;;;;18.80;8.60;;;;;;;29.76;58.46;98757.58;106000;1277;107211;-70
2022/06/30 07:19:37;;;;;;;23.10;8.40;;;;;;;30.35;58.34;98758.85;106031;1276;98631;-69
2022/06/30 07:22:08;;;;;;;18.10;8.10;;;;;;;31.00;57.53;98760.66;106000;1276;97990;-69
2022/06/30 07:24:35;;;;;;;14.50;7.50;;;;;;;31.70;57.68;98757.41;106040;1276;111388;-70
2022/06/30 07:27:03;;;;;;;18.20;8.70;;;;;;;32.38;57.02;98756.74;106088;1277;98497;-72
2022/06/30 07:29:32;;;;;;;13.90;7.40;;;;;;;33.04;56.40;98756.27;106057;1276;107402;-71
2022/06/30 07:32:01;;;;;;;14.80;7.70;;;;;;;33.58;56.34;98761.64;106007;1276;98015;-72
2022/06/30 07:34:29;;;;;;;17.00;8.20;;;;;;;34.23;56.57;98759.41;105939;1276;95327;-72
2022/06/30 07:36:57;;;;;;;19.50;7.40;;;;;;;34.75;55.55;98760.16;105822;1277;113700;-71
2022/06/30 07:40:00;;;;;;;14.40;7.20;;;;;;;35.39;54.58;98755.17;105984;1276;95694;-72
2022/06/30 07:42:39;;;;;;;14.20;7.20;;;;;;;35.93;53.97;98753.51;105875;1277;107762;-72
2022/06/30 07:45:11;;;;;;;13.10;7.20;;;;;;;36.51;53.62;98752.95;105888;1276;97924;-72
2022/06/30 07:47:39;;;;;;;12.50;6.50;;;;;;;36.93;52.84;98757.38;105941;1276;97889;-70
2022/06/30 07:50:08;;;;;;;14.70;7.70;;;;;;;37.34;52.77;98756.29;105884;1276;111453;-70
2022/06/30 07:52:53;;;;;;;14.90;7.60;;;;;;;37.89;52.01;98753.95;105951;1276;97654;-71
2022/06/30 07:55:21;;;;;;;15.70;7.30;;;;;;;38.53;51.69;98752.47;105984;1276;106303;-71
2022/06/30 07:57:49;;;;;;;13.80;7.60;;;;;;;39.11;50.86;98750.37;105976;1276;97990;-72
2022/06/30 08:00:24;;;;;;;18.00;7.20;;;;;;;39.62;50.06;98752.36;106089;1276;97893;-73
2022/06/30 08:02:53;;;;;;;19.00;7.20;;;;;;;40.14;49.40;98750.71;105951;1276;111254;-72
2022/06/30 08:05:21;;;;;;;14.50;7.30;;;;;;;40.62;48.92;98752.80;106016;1276;98002;-73
2022/06/30 08:07:49;;;;;;;13.50;6.80;;;;;;;41.13;48.54;98754.73;105945;1276;107729;-76
2022/06/30 08:10:17;;;;;;;22.30;7.30;;;;;;;41.64;48.12;98753.30;105888;1276;97921;-73
2022/06/30 08:12:45;;;;;;;13.10;6.80;;;;;;;42.04;47.37;98757.15;105930;1276;96512;-73
2022/06/30 08:15:16;;;;;;;12.60;6.70;;;;;;;42.35;46.77;98758.63;106004;1276;111861;-72
2022/06/30 08:17:44;;;;;;;12.70;6.60;;;;;;;42.64;46.26;98761.23;105977;1277;95949;-72
2022/06/30 08:20:12;;;;;;;13.90;7.20;;;;;;;43.02;45.67;98764.36;105917;1276;107734;-72
2022/06/30 08:22:40;;;;;;;10.30;6.30;;;;;;;43.45;45.12;98765.14;105977;1277;95338;-72
2022/06/30 08:25:08;;;;;;;14.80;7.00;;;;;;;43.69;44.35;98763.41;106049;1276;95912;-73
2022/06/30 08:27:36;;;;;;;11.90;5.90;;;;;;;43.92;43.59;98766.21;105998;1276;111514;-72
2022/06/30 08:30:06;;;;;;;10.60;5.90;;;;;;;43.96;42.86;98762.44;106022;1276;95725;-73
2022/06/30 08:32:37;;;;;;;10.00;5.90;;;;;;;44.04;42.00;98767.77;106049;1276;108825;-72
2022/06/30 08:35:05;;;;;;;11.90;5.70;;;;;;;44.08;41.54;98763.13;106048;1276;97928;-72
2022/06/30 08:37:34;;;;;;;11.10;5.50;;;;;;;44.17;41.26;98762.16;106059;1276;97984;-72
2022/06/30 08:42:59;;;;;;;13.00;6.10;;;;;;;44.20;39.71;98757.42;106016;1276;95742;-71
2022/06/30 08:45:29;;;;;;;12.20;5.90;;;;;;;43.94;38.10;98755.59;106025;1276;107634;-72
2022/06/30 08:47:58;;;;;;;15.20;6.10;;;;;;;43.58;37.94;98753.73;106005;1277;97980;-74
2022/06/30 08:50:26;;;;;;;14.70;5.90;;;;;;;43.59;37.47;98753.83;106037;1276;98475;-72
2022/06/30 08:52:58;;;;;;;9.80;5.80;;;;;;;43.75;37.23;98756.45;106048;1276;111354;-72
2022/06/30 08:55:30;;;;;;;10.90;5.80;;;;;;;43.86;36.92;98749.90;106065;1276;95744;-71
2022/06/30 08:58:07;;;;;;;8.50;5.70;;;;;;;43.84;36.36;98753.04;105962;1276;106955;-72
2022/06/30 09:00:37;;;;;;;15.60;6.10;;;;;;;43.91;36.11;98754.17;105926;1277;97950;-72
2022/06/30 09:03:07;;;;;;;10.80;6.10;;;;;;;44.06;35.47;98753.53;105975;1276;97848;-71
2022/06/30 09:05:34;;;;;;;12.90;6.10;;;;;;;44.10;34.95;98755.48;105996;1276;111410;-70
2022/06/30 09:08:03;;;;;;;12.90;6.30;;;;;;;43.99;34.85;98752.88;106007;1276;97906;-72
2022/06/30 09:10:54;;;;;;;10.60;5.80;;;;;;;43.96;34.64;98748.83;105977;1276;107727;-73
2022/06/30 09:13:23;;;;;;;;;;;;;;;43.91;34.56;98748.17;105982;1276;98085;-72
2022/06/30 09:15:52;;;;;;;12.60;5.90;;;;;;;43.80;34.33;98750.80;106032;1276;97865;-72
2022/06/30 09:18:26;;;;;;;9.70;5.50;;;;;;;43.86;33.91;98749.66;105969;1277;111427;-73
2022/06/30 09:20:56;;;;;;;12.70;6.40;;;;;;;43.80;33.55;98747.30;105991;1276;98414;-74
2022/06/30 09:23:30;;;;;;;9.50;5.40;;;;;;;43.67;33.28;98749.13;105955;1276;108312;-70
2022/06/30 09:26:00;;;;;;;10.80;5.90;;;;;;;43.64;32.92;98745.25;105804;1276;97969;-72
2022/06/30 09:28:42;;;;;;;11.30;6.10;;;;;;;43.60;32.75;98742.34;105951;1276;97940;-72
2022/06/30 09:31:34;;;;;;;9.20;5.80;;;;;;;43.51;32.27;98736.70;105996;1276;111197;-71
2022/06/30 09:34:19;;;;;;;11.40;5.70;;;;;;;43.38;32.03;98738.30;106018;1276;98397;-72
2022/06/30 09:36:51;;;;;;;12.20;5.90;;;;;;;43.26;31.79;98736.70;105996;1276;107880;-73
2022/06/30 09:39:22;;;;;;;12.00;6.20;;;;;;;43.19;31.53;98738.58;105994;1276;97899;-71
2022/06/30 09:41:51;;;;;;;10.60;5.40;;;;;;;43.13;31.62;98739.20;106045;1276;97946;-75
2022/06/30 09:44:23;;;;;;;10.10;5.60;;;;;;;42.86;31.22;98738.70;105966;1276;111951;-74
2022/06/30 09:47:03;;;;;;;9.50;5.20;;;;;;;42.58;30.94;98737.17;105944;1276;98423;-73
2022/06/30 09:49:34;;;;;;;10.10;5.50;;;;;;;42.47;30.78;98734.00;105916;1276;106961;-75
2022/06/30 09:52:23;;;;;;;12.40;5.30;;;;;;;42.42;30.52;98735.05;106004;1277;97895;-73
2022/06/30 09:54:59;;;;;;;12.90;5.70;;;;;;;42.14;30.24;98735.27;106007;1277;98054;-71
2022/06/30 09:57:45;;;;;;;15.20;5.10;;;;;;;41.81;30.24;98735.20;106021;1276;111157;-71
2022/06/30 10:00:16;;;;;;;11.30;5.00;;;;;;;41.63;29.83;98732.30;105869;1276;96290;-70
2022/06/30 10:02:47;;;;;;;11.90;4.90;;;;;;;41.48;29.79;98729.86;105846;1276;108282;-70
2022/06/30 10:05:18;;;;;;;12.70;4.80;;;;;;;41.42;29.63;98729.62;105944;1276;97999;-70
2022/06/30 10:07:46;;;;;;;10.40;4.20;;;;;;;41.32;29.48;98725.50;105877;1276;97771;-70
2022/06/30 10:10:18;;;;;;;9.90;4.60;;;;;;;41.08;29.09;98725.46;105813;1276;111437;-70
2022/06/30 10:13:18;;;;;;;8.70;4.70;;;;;;;40.76;29.04;98730.33;105672;1275;96354;-68
2022/06/30 10:15:54;;;;;;;8.10;4.60;;;;;;;40.58;28.88;98723.44;105678;1276;107671;-71
2022/06/30 10:18:27;;;;;;;9.40;4.50;;;;;;;40.36;28.88;98718.77;107714;1276;95931;-71
2022/06/30 10:20:55;;;;;;;9.70;4.40;;;;;;;40.18;28.57;98718.77;107704;1276;95856;-70
2022/06/30 10:23:24;;;;;;;12.30;4.70;;;;;;;39.94;28.58;98723.86;107681;1276;111384;-70
2022/06/30 10:25:54;;;;;;;12.50;4.90;;;;;;;39.73;28.17;98723.34;107730;1276;96262;-70
2022/06/30 10:28:25;;;;;;;11.20;4.80;;;;;;;39.58;28.14;98722.96;106589;1276;108110;-70
2022/06/30 10:31:00;;;;;;;10.80;4.60;;;;;;;39.42;27.98;98720.75;105859;1276;97986;-70
2022/06/30 10:33:52;;;;;;;9.30;4.70;;;;;;;39.25;27.97;98716.75;105869;1276;97999;-69
2022/06/30 10:36:29;;;;;;;9.90;4.80;;;;;;;39.12;28.14;98713.96;106047;1276;112196;-71
2022/06/30 10:39:08;;;;;;;11.50;5.00;;;;;;;38.96;27.97;98711.08;106066;1276;97973;-70
2022/06/30 10:41:45;;;;;;;12.20;5.30;;;;;;;38.75;27.80;98712.34;105961;1276;107703;-70
2022/06/30 10:44:22;;;;;;;13.00;4.90;;;;;;;38.62;27.64;98706.95;106053;1276;95237;-71
2022/06/30 10:46:57;;;;;;;8.10;4.50;;;;;;;38.51;27.75;98716.48;106038;1277;98089;-70
2022/06/30 10:49:30;;;;;;;11.70;4.30;;;;;;;38.37;27.81;98712.16;106010;1277;112376;-71
2022/06/30 10:52:17;;;;;;;11.90;4.80;;;;;;;38.18;27.56;98713.08;106034;1277;98474;-71
2022/06/30 10:54:46;;;;;;;15.20;4.90;;;;;;;38.02;27.65;98711.97;105974;1277;107990;-71
2022/06/30 10:57:16;;;;;;;13.70;4.80;;;;;;;37.86;27.58;98703.08;105992;1276;97979;-70
2022/06/30 11:00:42;;;;;;;9.90;4.20;;;;;;;37.75;27.58;98702.76;105945;1276;96589;-70
2022/06/30 11:03:29;;;;;;;9.00;4.40;;;;;;;37.61;27.46;98702.96;106005;1276;111896;-71
2022/06/30 11:06:02;;;;;;;12.70;5.00;;;;;;;37.48;27.24;98703.48;106002;1276;98366;-72
2022/06/30 11:08:36;;;;;;;15.00;4.70;;;;;;;37.35;27.25;98697.16;106027;1276;106899;-71
2022/06/30 11:11:22;;;;;;;10.90;4.60;;;;;;;37.24;27.19;98698.36;105966;1276;97139;-72
2022/06/30 11:14:02;;;;;;;12.30;4.30;;;;;;;37.15;27.13;98693.43;105777;1276;97979;-71
2022/06/30 11:16:32;;;;;;;13.70;4.70;;;;;;;37.07;27.12;98692.59;105758;1277;111544;-70
2022/06/30 11:19:04;;;;;;;13.50;4.70;;;;;;;37.03;27.30;98691.98;105900;1276;98479;-71
2022/06/30 11:21:33;;;;;;;10.40;5.00;;;;;;;36.99;27.18;98688.59;105936;1276;107770;-71
2022/06/30 11:24:04;;;;;;;9.70;4.50;;;;;;;36.95;27.26;98685.91;105996;1276;97891;-70
2022/06/30 11:29:28;;;;;;;12.90;4.60;;;;;;;36.83;27.19;98679.98;107800;1276;111868;-71
2022/06/30 11:32:02;;;;;;;11.00;4.80;;;;;;;36.84;27.26;98690.18;106678;1276;98498;-70
2022/06/30 11:34:35;;;;;;;9.70;4.10;;;;;;;36.86;27.23;98689.73;105727;1276;107770;-70
2022/06/30 11:37:04;;;;;;;10.50;4.50;;;;;;;36.89;27.32;98684.36;105714;1276;97896;-70
2022/06/30 11:39:34;;;;;;;13.90;5.30;;;;;;;36.89;27.27;98684.95;105803;1276;97830;-70
2022/06/30 11:42:06;;;;;;;9.70;4.80;;;;;;;36.88;27.29;98677.39;105838;1276;111397;-70
2022/06/30 11:44:38;;;;;;;7.10;4.10;;;;;;;36.88;27.18;98673.70;106061;1277;97881;-70
2022/06/30 11:47:17;;;;;;;12.10;5.00;;;;;;;36.85;27.17;98675.98;106011;1276;107920;-70